Time;durP1;ratioP1;P1;durP2;ratioP2;P2;SDS_P1;SDS_P2;PMS_P1;PMS_P2;Temp;Humidity;BMP_temperature;BMP_pressure;BME280_temperature;BME280_humidity;BME280_pressure;Samples;Min_cycle;Max_cycle;Signal;HPM_P1;HPM_P2
2023/08/27 00:02:04;;;;;;;1.60;1.37;;;;;;;16.77;73.38;98392.47;5076624;28;38656;-85
2023/08/27 00:04:33;;;;;;;1.30;1.00;;;;;;;16.67;73.43;98378.31;5075720;28;41019;-84
2023/08/27 00:07:01;;;;;;;1.60;1.43;;;;;;;16.77;73.41;98402.34;5076262;28;42950;-84
2023/08/27 00:09:28;;;;;;;1.60;1.23;;;;;;;16.76;73.40;98417.53;5076414;28;41104;-84
2023/08/27 00:11:56;;;;;;;1.20;1.10;;;;;;;16.76;73.80;98408.66;5059482;28;38691;-84
2023/08/27 00:14:23;;;;;;;1.57;1.40;;;;;;;16.67;74.01;98380.97;5059224;28;42027;-84
2023/08/27 00:16:52;;;;;;;1.60;1.50;;;;;;;16.73;73.88;98382.22;5074041;28;43164;-84
2023/08/27 00:19:20;;;;;;;4.30;1.10;;;;;;;16.72;74.19;98370.66;5091874;28;42261;-84
2023/08/27 00:21:51;;;;;;;1.90;1.20;;;;;;;16.75;74.11;98373.06;5075055;28;40957;-84
2023/08/27 00:24:19;;;;;;;1.07;1.00;;;;;;;16.73;74.01;98364.34;5090465;28;41859;-84
2023/08/27 00:26:46;;;;;;;1.40;1.20;;;;;;;16.75;74.22;98367.72;5074820;28;42706;-84
2023/08/27 00:29:18;;;;;;;1.50;1.40;;;;;;;16.75;73.98;98365.03;5074634;28;42100;-85
2023/08/27 00:31:45;;;;;;;1.23;1.17;;;;;;;16.65;74.17;98342.84;5057784;28;38915;-84
2023/08/27 00:34:13;;;;;;;1.17;1.00;;;;;;;16.74;73.90;98347.31;5074716;28;41753;-84
2023/08/27 00:36:40;;;;;;;1.07;1.00;;;;;;;16.75;73.84;98340.97;5057915;28;43481;-84
2023/08/27 00:39:09;;;;;;;1.93;1.33;;;;;;;16.68;74.13;98337.22;5057893;28;41167;-84
2023/08/27 00:41:37;;;;;;;0.80;0.80;;;;;;;16.73;74.07;98358.16;5057752;28;38636;-84
2023/08/27 00:44:05;;;;;;;1.73;1.20;;;;;;;16.70;74.25;98358.44;5057285;28;40660;-84
2023/08/27 00:46:32;;;;;;;1.63;1.47;;;;;;;16.69;74.69;98362.94;5074211;28;41860;-84
2023/08/27 00:49:00;;;;;;;1.87;1.60;;;;;;;16.68;78.12;98353.25;5057157;28;41000;-84
2023/08/27 00:51:28;;;;;;;1.63;1.53;;;;;;;16.56;78.91;98330.34;5074593;28;38942;-84
2023/08/27 00:53:56;;;;;;;2.27;1.63;;;;;;;16.67;79.11;98334.69;5057846;28;41762;-84
2023/08/27 00:56:25;;;;;;;1.37;1.27;;;;;;;16.67;78.75;98343.56;5075430;28;42416;-84
2023/08/27 00:58:52;;;;;;;1.83;1.60;;;;;;;16.70;77.98;98351.25;5075096;28;42328;-84
2023/08/27 01:01:23;;;;;;;1.70;1.60;;;;;;;16.61;77.73;98336.06;5058552;28;41375;-84
2023/08/27 01:03:51;;;;;;;1.77;1.30;;;;;;;16.62;77.45;98340.47;5075139;28;41926;-84
2023/08/27 01:06:19;;;;;;;1.33;1.20;;;;;;;16.68;77.08;98358.59;5059174;28;41325;-84
2023/08/27 01:08:56;;;;;;;1.43;1.30;;;;;;;16.63;76.85;98341.31;5056309;28;41273;-84
2023/08/27 01:11:35;;;;;;;1.90;1.33;;;;;;;16.70;77.23;98353.09;5071376;28;40670;-84
2023/08/27 01:14:06;;;;;;;1.53;1.43;;;;;;;16.66;76.91;98341.84;5073763;28;40372;-84
2023/08/27 01:16:35;;;;;;;1.37;1.23;;;;;;;16.74;76.63;98359.84;5057353;28;43052;-84
2023/08/27 01:19:07;;;;;;;2.63;1.40;;;;;;;16.58;77.18;98330.16;5073824;28;42334;-84
2023/08/27 01:21:36;;;;;;;1.40;1.30;;;;;;;16.74;77.06;98376.72;5074079;28;38854;-84
2023/08/27 01:24:04;;;;;;;1.67;1.57;;;;;;;16.76;76.65;98389.94;5073868;28;42060;-84
2023/08/27 01:26:38;;;;;;;1.53;1.33;;;;;;;16.73;77.03;98391.06;5056457;28;41409;-85
2023/08/27 01:29:14;;;;;;;1.57;1.47;;;;;;;16.70;77.17;98367.28;5071237;28;42337;-84
2023/08/27 01:31:52;;;;;;;1.53;1.23;;;;;;;16.68;77.26;98371.97;5057174;28;38991;-84
2023/08/27 01:34:22;;;;;;;1.30;1.20;;;;;;;16.78;77.29;98383.47;5056636;28;40526;-84
2023/08/27 01:36:52;;;;;;;2.53;1.60;;;;;;;16.81;76.91;98393.84;5056896;28;42763;-84
2023/08/27 01:39:20;;;;;;;1.60;1.50;;;;;;;16.83;77.04;98402.56;5090443;28;42288;-84
2023/08/27 01:41:47;;;;;;;1.07;1.00;;;;;;;16.88;76.96;98394.97;5073940;28;39145;-84
2023/08/27 01:44:15;;;;;;;2.20;1.80;;;;;;;16.88;77.09;98370.06;5056744;28;40644;-84
2023/08/27 01:46:42;;;;;;;1.37;1.23;;;;;;;16.93;77.30;98370.47;5073743;28;41695;-84
2023/08/27 01:49:10;;;;;;;1.73;1.50;;;;;;;16.98;76.80;98372.69;5073619;28;42867;-84
2023/08/27 01:51:37;;;;;;;1.70;1.60;;;;;;;17.00;76.69;98360.00;5057175;28;39033;-84
2023/08/27 01:54:07;;;;;;;1.67;1.30;;;;;;;16.94;76.76;98355.25;5074311;28;41732;-84
2023/08/27 01:56:35;;;;;;;1.93;1.20;;;;;;;17.07;76.37;98367.28;5074384;28;41898;-84
2023/08/27 01:59:03;;;;;;;1.80;1.63;;;;;;;17.03;80.04;98343.66;5057523;28;42073;-84
2023/08/27 02:01:31;;;;;;;2.13;1.70;;;;;;;17.08;79.88;98341.38;5074758;28;40812;-84
2023/08/27 02:03:59;;;;;;;1.70;1.60;;;;;;;16.98;79.81;98335.22;5074302;28;40597;-84
2023/08/27 02:06:26;;;;;;;2.73;1.60;;;;;;;17.09;78.84;98372.47;5072966;28;41740;-84
2023/08/27 02:08:54;;;;;;;1.83;1.57;;;;;;;17.11;78.96;98383.88;5073081;28;42306;-84
2023/08/27 02:11:23;;;;;;;1.63;1.40;;;;;;;17.14;78.55;98394.28;5090263;28;39551;-84
2023/08/27 02:13:52;;;;;;;1.30;1.20;;;;;;;17.09;78.03;98380.50;5073230;28;42104;-84
2023/08/27 02:16:20;;;;;;;1.80;1.53;;;;;;;17.11;77.86;98367.84;5073378;28;42736;-84
2023/08/27 02:18:47;;;;;;;1.63;1.40;;;;;;;17.24;77.49;98373.69;5089989;28;42242;-84
2023/08/27 02:21:15;;;;;;;1.70;1.33;;;;;;;17.30;78.09;98346.34;5073486;28;39927;-84
2023/08/27 02:23:43;;;;;;;1.70;1.60;;;;;;;17.31;78.29;98337.28;5056326;28;41670;-84
2023/08/27 02:26:10;;;;;;;1.67;1.50;;;;;;;17.32;78.00;98338.97;5056216;28;42134;-84
2023/08/27 02:28:40;;;;;;;1.40;1.30;;;;;;;17.32;78.10;98359.53;5056313;28;42539;-84
2023/08/27 02:31:08;;;;;;;1.40;1.30;;;;;;;17.33;78.01;98370.09;5090918;28;40823;-85
2023/08/27 02:33:35;;;;;;;1.47;1.20;;;;;;;17.35;77.95;98361.91;5056203;28;40578;-84
2023/08/27 02:36:03;;;;;;;1.53;1.43;;;;;;;17.24;77.73;98337.06;5055947;28;42748;-84
2023/08/27 02:38:31;;;;;;;1.33;1.23;;;;;;;17.36;77.70;98356.41;5056384;28;41463;-84
2023/08/27 02:40:58;;;;;;;1.50;1.40;;;;;;;17.35;77.59;98349.38;5075940;28;39182;-84
2023/08/27 02:43:26;;;;;;;1.80;1.37;;;;;;;17.37;77.75;98342.03;5076354;28;40770;-84
2023/08/27 02:45:55;;;;;;;1.60;1.50;;;;;;;17.37;77.68;98336.69;5093189;28;42794;-84
2023/08/27 02:48:22;;;;;;;2.23;1.33;;;;;;;17.39;77.46;98324.00;5075913;28;41630;-83
2023/08/27 02:50:50;;;;;;;1.33;1.23;;;;;;;17.30;77.19;98302.66;5059116;28;40995;-84
2023/08/27 02:53:17;;;;;;;3.63;1.67;;;;;;;17.39;77.18;98315.97;5076850;28;41759;-84
2023/08/27 02:55:45;;;;;;;2.47;1.50;;;;;;;17.41;77.25;98319.34;5077232;28;43440;-84
2023/08/27 02:58:13;;;;;;;1.53;1.43;;;;;;;17.35;77.45;98290.50;5077214;28;41270;-84
2023/08/27 03:00:41;;;;;;;1.50;1.40;;;;;;;17.44;77.11;98292.25;5059998;28;39264;-84
2023/08/27 03:03:11;;;;;;;1.20;1.10;;;;;;;17.42;77.14;98278.19;5060478;28;40620;-85
2023/08/27 03:05:40;;;;;;;1.87;1.50;;;;;;;17.46;77.34;98276.88;5071845;28;42447;-84
2023/08/27 03:08:08;;;;;;;1.83;1.73;;;;;;;17.34;78.17;98250.50;5085301;28;43089;-85
2023/08/27 03:10:35;;;;;;;1.83;1.33;;;;;;;17.36;78.29;98256.53;5077340;28;39942;-84
2023/08/27 03:13:03;;;;;;;2.63;1.60;;;;;;;17.45;78.82;98275.19;5077105;28;42585;-82
2023/08/27 03:15:31;;;;;;;1.60;1.50;;;;;;;17.35;78.52;98263.72;5076991;28;42873;-84
2023/08/27 03:17:59;;;;;;;1.47;1.37;;;;;;;17.38;78.30;98278.66;5058380;28;41539;-84
2023/08/27 03:20:28;;;;;;;2.77;1.40;;;;;;;17.37;78.38;98279.63;5075773;28;39940;-84
2023/08/27 03:22:56;;;;;;;2.00;1.37;;;;;;;17.50;79.26;98313.06;5059009;28;40389;-84
2023/08/27 03:25:23;;;;;;;3.27;1.93;;;;;;;17.35;79.12;98295.84;5058772;28;41728;-84
2023/08/27 03:27:51;;;;;;;1.97;1.60;;;;;;;17.49;78.96;98327.44;5058742;28;41175;-84
2023/08/27 03:30:18;;;;;;;2.37;1.70;;;;;;;17.54;78.48;98337.72;5075700;28;39923;-84
2023/08/27 03:32:46;;;;;;;1.73;1.50;;;;;;;17.55;78.59;98329.53;5058888;28;42171;-84
2023/08/27 03:35:14;;;;;;;1.80;1.60;;;;;;;17.59;78.57;98322.84;5075530;28;43643;-84
2023/08/27 03:37:43;;;;;;;1.73;1.63;;;;;;;17.60;78.45;98321.84;5058422;28;42437;-84
2023/08/27 03:40:12;;;;;;;1.60;1.50;;;;;;;17.51;78.28;98301.38;5075074;28;40929;-84
2023/08/27 03:42:39;;;;;;;2.30;1.70;;;;;;;17.66;78.78;98325.81;5058756;28;40516;-85
2023/08/27 03:45:09;;;;;;;1.60;1.50;;;;;;;17.69;78.84;98319.28;5075280;28;42873;-84
2023/08/27 03:47:36;;;;;;;1.60;1.50;;;;;;;17.60;78.58;98303.13;5092554;28;43171;-84
2023/08/27 03:50:04;;;;;;;1.67;1.57;;;;;;;17.59;78.35;98304.09;5093300;28;40976;-84
2023/08/27 03:52:34;;;;;;;1.83;1.60;;;;;;;17.70;78.20;98307.56;5058660;28;40672;-84
2023/08/27 03:55:04;;;;;;;1.40;1.30;;;;;;;17.69;78.30;98303.22;5076108;28;41855;-83
2023/08/27 03:57:31;;;;;;;1.60;1.50;;;;;;;17.72;77.99;98300.22;5076542;28;42068;-84
2023/08/27 03:59:59;;;;;;;1.70;1.30;;;;;;;17.73;78.42;98291.19;5093385;28;39972;-84
2023/08/27 04:02:26;;;;;;;1.40;1.23;;;;;;;17.42;78.29;98238.06;5059559;28;40551;-84
2023/08/27 04:04:54;;;;;;;1.70;1.50;;;;;;;17.74;78.29;98284.84;5058894;28;41814;-84
2023/08/27 04:07:21;;;;;;;1.40;1.30;;;;;;;17.62;78.21;98261.97;5059571;28;41095;-84
2023/08/27 04:09:49;;;;;;;1.67;1.43;;;;;;;17.71;78.21;98279.81;5076150;28;39959;-84
2023/08/27 04:12:18;;;;;;;1.40;1.30;;;;;;;17.64;78.51;98265.38;5076251;28;41865;-84
2023/08/27 04:14:46;;;;;;;1.47;1.37;;;;;;;17.59;78.47;98266.63;5075963;28;42881;-84
2023/08/27 04:17:13;;;;;;;1.40;1.30;;;;;;;17.64;78.61;98266.22;5076478;28;42980;-84
2023/08/27 04:19:42;;;;;;;1.77;1.53;;;;;;;17.65;78.55;98269.72;5058951;28;40490;-84
2023/08/27 04:22:10;;;;;;;1.43;1.30;;;;;;;17.23;78.83;98206.91;5058382;28;40875;-84
2023/08/27 04:24:37;;;;;;;3.00;1.67;;;;;;;17.58;78.84;98264.94;5056996;28;43508;-84
2023/08/27 04:27:05;;;;;;;1.73;1.50;;;;;;;17.46;79.17;98249.25;5074443;28;41223;-84
2023/08/27 04:29:34;;;;;;;1.60;1.50;;;;;;;17.58;79.25;98270.28;5074578;28;40121;-84
2023/08/27 04:32:02;;;;;;;1.47;1.37;;;;;;;17.46;78.94;98259.97;5074814;28;42104;-84
2023/08/27 04:34:29;;;;;;;1.50;1.40;;;;;;;17.57;78.91;98282.00;5074731;28;42526;-84
2023/08/27 04:36:57;;;;;;;1.00;1.00;;;;;;;17.57;79.04;98286.50;5057903;28;41204;-83
2023/08/27 04:39:26;;;;;;;1.60;1.50;;;;;;;17.34;79.33;98243.31;5057650;28;39900;-84
2023/08/27 04:41:53;;;;;;;1.73;1.63;;;;;;;17.53;80.09;98271.78;5057699;28;40882;-84
2023/08/27 04:44:21;;;;;;;1.67;1.27;;;;;;;17.41;80.38;98273.84;5091369;28;43659;-84
2023/08/27 04:46:50;;;;;;;1.70;1.60;;;;;;;17.55;80.31;98294.72;5058004;28;42258;-83
2023/08/27 04:49:18;;;;;;;2.33;1.87;;;;;;;17.41;79.71;98268.47;5057464;28;38951;-83
2023/08/27 04:51:45;;;;;;;1.93;1.73;;;;;;;17.53;79.59;98294.03;5092334;28;41828;-84
2023/08/27 04:54:13;;;;;;;2.73;1.53;;;;;;;17.63;79.44;98304.69;5091989;28;43015;-86
2023/08/27 04:56:40;;;;;;;1.30;1.20;;;;;;;17.65;79.46;98293.81;5058707;28;42262;-84
2023/08/27 04:59:10;;;;;;;1.60;1.50;;;;;;;17.59;79.71;98282.69;5092274;28;39999;-84
2023/08/27 05:01:37;;;;;;;1.37;1.27;;;;;;;17.53;80.17;98283.31;5074907;28;42697;-83
2023/08/27 05:04:07;;;;;;;1.90;1.53;;;;;;;17.41;80.34;98268.47;5058149;28;42717;-84
2023/08/27 05:06:35;;;;;;;1.50;1.40;;;;;;;17.48;80.70;98290.97;5075366;28;40869;-84
2023/08/27 05:09:02;;;;;;;1.50;1.40;;;;;;;17.46;80.66;98276.88;5058494;28;38869;-83
2023/08/27 05:11:30;;;;;;;1.80;1.57;;;;;;;17.32;80.73;98256.00;5075377;28;41695;-83
2023/08/27 05:13:58;;;;;;;1.60;1.50;;;;;;;17.44;80.77;98278.03;5058351;28;41734;-82
2023/08/27 05:16:26;;;;;;;1.50;1.40;;;;;;;17.29;81.02;98248.28;5058436;28;41226;-82
2023/08/27 05:18:53;;;;;;;2.90;2.60;;;;;;;17.43;81.54;98274.50;5075199;28;40845;-82
2023/08/27 05:21:23;;;;;;;2.23;2.00;;;;;;;17.40;83.68;98250.75;5058054;28;41025;-82
2023/08/27 05:23:51;;;;;;;3.20;1.93;;;;;;;17.39;83.64;98245.53;5056084;28;41883;-82
2023/08/27 05:26:18;;;;;;;1.80;1.70;;;;;;;17.42;83.97;98272.00;5056987;28;42169;-82
2023/08/27 05:28:46;;;;;;;2.13;2.00;;;;;;;17.42;84.46;98269.31;5073744;28;39943;-82
2023/08/27 05:31:13;;;;;;;2.13;1.90;;;;;;;17.44;84.08;98270.81;5073723;28;41571;-82
2023/08/27 05:33:41;;;;;;;3.33;1.97;;;;;;;17.46;83.78;98255.47;5074099;28;43609;-81
2023/08/27 05:36:09;;;;;;;2.63;1.97;;;;;;;17.48;83.81;98226.72;5056833;28;40981;-81
2023/08/27 05:38:38;;;;;;;2.93;2.40;;;;;;;17.47;84.51;98208.13;5056865;28;39031;-82
2023/08/27 05:41:05;;;;;;;2.57;2.30;;;;;;;17.48;85.10;98248.13;5073202;28;41685;-81
2023/08/27 05:43:33;;;;;;;2.67;2.30;;;;;;;17.48;85.08;98261.50;5056541;28;41766;-82
2023/08/27 05:46:00;;;;;;;3.67;2.23;;;;;;;17.51;85.06;98253.19;5056584;28;41141;-81
2023/08/27 05:48:28;;;;;;;2.33;2.13;;;;;;;17.55;84.92;98238.50;5073675;28;39976;-81
2023/08/27 05:50:56;;;;;;;3.17;2.27;;;;;;;17.58;84.49;98232.81;5056236;28;40841;-81
2023/08/27 05:53:23;;;;;;;2.93;2.03;;;;;;;17.63;84.40;98223.47;5073813;28;43753;-81
2023/08/27 05:55:53;;;;;;;2.23;2.03;;;;;;;17.64;84.47;98235.91;5091164;28;43213;-82
2023/08/27 05:58:20;;;;;;;3.20;2.67;;;;;;;17.72;84.85;98262.75;5057486;28;39953;-82
2023/08/27 06:00:52;;;;;;;2.90;2.30;;;;;;;17.75;84.31;98265.97;5056998;28;42201;-81
2023/08/27 06:03:19;;;;;;;2.40;2.10;;;;;;;17.78;84.18;98260.31;5074365;28;41871;-81
2023/08/27 06:05:47;;;;;;;2.30;2.10;;;;;;;17.68;85.44;98224.72;5091701;28;43565;-82
2023/08/27 06:08:14;;;;;;;4.47;2.37;;;;;;;17.44;85.41;98171.78;5074483;28;39751;-82
2023/08/27 06:10:42;;;;;;;3.20;2.83;;;;;;;17.79;85.81;98231.69;5074035;28;42566;-82
2023/08/27 06:13:11;;;;;;;3.33;2.83;;;;;;;17.70;85.50;98219.19;5058109;28;41693;-82
2023/08/27 06:15:38;;;;;;;3.30;2.90;;;;;;;17.83;85.95;98262.50;5060532;28;41654;-82
2023/08/27 06:18:07;;;;;;;2.63;2.37;;;;;;;17.87;85.36;98279.94;5075729;28;40883;-82
2023/08/27 06:20:35;;;;;;;2.50;2.20;;;;;;;17.79;85.16;98278.06;5076258;28;41848;-83
2023/08/27 06:23:04;;;;;;;2.13;1.93;;;;;;;17.82;85.30;98282.22;5093582;28;43006;-82
2023/08/27 06:25:33;;;;;;;2.50;2.27;;;;;;;17.94;85.09;98294.38;5064082;28;41345;-81
2023/08/27 06:28:04;;;;;;;2.43;2.20;;;;;;;17.90;85.03;98296.56;5073217;28;38931;-82
2023/08/27 06:30:33;;;;;;;2.80;2.37;;;;;;;17.91;84.81;98298.25;5081601;28;42038;-82
2023/08/27 06:33:05;;;;;;;1.73;1.63;;;;;;;18.02;85.06;98307.03;5059855;28;41435;-82
2023/08/27 06:35:32;;;;;;;2.07;1.80;;;;;;;18.02;85.06;98298.97;5076051;28;42273;-83
2023/08/27 06:38:00;;;;;;;2.60;2.37;;;;;;;18.01;84.86;98281.22;5059397;28;40009;-82
2023/08/27 06:40:29;;;;;;;2.63;2.20;;;;;;;18.17;84.68;98297.41;5059147;28;40840;-82
2023/08/27 06:42:57;;;;;;;2.87;2.30;;;;;;;18.26;84.34;98296.47;5076260;28;41295;-82
2023/08/27 06:45:26;;;;;;;2.40;1.77;;;;;;;18.35;84.14;98289.31;5058943;28;42038;-82
2023/08/27 06:47:56;;;;;;;2.00;1.80;;;;;;;18.44;84.23;98269.56;5076433;28;38751;-82
2023/08/27 06:50:25;;;;;;;2.40;2.20;;;;;;;18.38;84.62;98248.78;5092208;28;41719;-82
2023/08/27 06:52:52;;;;;;;3.40;2.73;;;;;;;18.43;84.09;98249.13;5076418;28;42689;-83
2023/08/27 06:55:21;;;;;;;2.20;2.00;;;;;;;18.52;84.08;98251.72;5076629;28;43107;-83
2023/08/27 06:57:49;;;;;;;3.00;2.10;;;;;;;18.69;84.10;98275.94;5060348;28;40208;-83
2023/08/27 07:00:17;;;;;;;2.90;2.67;;;;;;;18.70;84.53;98267.72;5076710;28;42329;-83
2023/08/27 07:02:45;;;;;;;3.47;2.50;;;;;;;18.78;84.46;98275.00;5076960;28;42855;-82
2023/08/27 07:05:14;;;;;;;2.67;2.47;;;;;;;18.88;84.56;98268.47;5076999;28;41083;-82
2023/08/27 07:07:43;;;;;;;4.50;3.17;;;;;;;18.98;83.88;98271.88;5060010;28;40396;-82
2023/08/27 07:10:11;;;;;;;3.37;2.63;;;;;;;19.07;83.64;98271.88;5076503;28;41904;-82
2023/08/27 07:12:39;;;;;;;3.63;3.30;;;;;;;19.10;83.35;98266.19;5094656;28;43957;-82
2023/08/27 07:15:08;;;;;;;3.33;2.90;;;;;;;19.14;83.59;98254.13;5076467;28;41446;-82
2023/08/27 07:17:38;;;;;;;3.50;3.20;;;;;;;19.28;83.55;98274.97;5060103;28;38858;-82
2023/08/27 07:20:09;;;;;;;3.20;2.57;;;;;;;19.25;83.21;98267.25;5094185;28;42717;-82
2023/08/27 07:22:38;;;;;;;3.23;2.90;;;;;;;19.34;82.86;98276.97;5058877;28;41685;-81
2023/08/27 07:25:09;;;;;;;2.93;2.47;;;;;;;19.20;82.47;98227.47;5057410;28;42321;-81
2023/08/27 07:27:36;;;;;;;3.97;3.37;;;;;;;19.58;82.21;98277.03;5059278;28;39940;-83
2023/08/27 07:30:05;;;;;;;3.97;3.47;;;;;;;19.62;82.23;98305.25;5075472;28;41796;-82
2023/08/27 07:32:33;;;;;;;3.57;2.93;;;;;;;19.62;81.90;98307.09;5075246;28;43049;-82
2023/08/27 07:35:00;;;;;;;3.50;3.07;;;;;;;19.46;81.73;98280.19;5058447;28;42202;-82
2023/08/27 07:37:31;;;;;;;3.50;3.10;;;;;;;19.67;81.55;98319.03;5058729;28;39741;-81
2023/08/27 07:40:01;;;;;;;2.90;2.60;;;;;;;19.68;81.57;98312.63;5058255;28;41679;-82
2023/08/27 07:42:29;;;;;;;3.13;2.70;;;;;;;19.67;81.37;98310.13;5058571;28;42986;-82
2023/08/27 07:44:56;;;;;;;3.20;2.90;;;;;;;19.67;81.35;98319.03;5058025;28;42263;-82
2023/08/27 07:47:24;;;;;;;2.90;2.53;;;;;;;19.70;81.03;98307.94;5058441;28;40939;-82
2023/08/27 07:49:52;;;;;;;3.63;3.17;;;;;;;19.73;80.83;98310.31;5057935;28;41119;-83
2023/08/27 07:52:19;;;;;;;3.77;2.93;;;;;;;19.72;80.85;98297.88;5058184;28;41601;-82
2023/08/27 07:54:47;;;;;;;3.93;3.33;;;;;;;19.71;80.83;98300.72;5058737;28;41463;-82
2023/08/27 07:57:16;;;;;;;3.27;2.97;;;;;;;19.79;80.90;98316.00;5076428;28;39665;-82
2023/08/27 07:59:44;;;;;;;4.27;3.10;;;;;;;19.77;80.77;98299.22;5058818;28;40952;-82
2023/08/27 08:02:11;;;;;;;3.07;2.53;;;;;;;19.60;81.42;98279.56;5058801;28;43130;-80
2023/08/27 08:04:39;;;;;;;3.40;3.10;;;;;;;19.59;81.94;98289.47;5092436;28;42089;-82
2023/08/27 08:07:07;;;;;;;2.83;2.63;;;;;;;19.71;81.99;98282.75;5075731;28;38975;-82
2023/08/27 08:09:34;;;;;;;2.83;2.63;;;;;;;19.90;81.96;98311.16;5093235;28;41798;-82
2023/08/27 08:12:02;;;;;;;3.23;2.80;;;;;;;19.99;81.81;98303.94;5093557;28;42772;-81
2023/08/27 08:14:31;;;;;;;2.73;2.50;;;;;;;20.08;82.15;98293.00;5058743;28;41288;-82
2023/08/27 08:16:58;;;;;;;4.13;2.73;;;;;;;20.07;82.41;98285.94;5075875;28;40031;-82
2023/08/27 08:19:26;;;;;;;3.47;2.90;;;;;;;20.25;81.97;98311.81;5092488;28;41904;-82
2023/08/27 08:21:53;;;;;;;3.97;3.57;;;;;;;20.23;81.66;98317.34;5075493;28;42441;-81
2023/08/27 08:24:21;;;;;;;3.67;3.30;;;;;;;20.27;81.49;98305.25;5073607;28;41769;-82
2023/08/27 08:26:52;;;;;;;3.53;3.17;;;;;;;20.26;81.77;98290.13;5092262;28;39980;-81
2023/08/27 08:29:20;;;;;;;3.10;2.77;;;;;;;20.46;80.94;98297.84;5090157;28;41727;-82
2023/08/27 08:31:49;;;;;;;2.93;2.70;;;;;;;20.62;80.58;98306.72;5092594;28;42784;-82
2023/08/27 08:34:17;;;;;;;3.10;2.80;;;;;;;20.68;79.72;98326.69;5091852;28;42002;-80
2023/08/27 08:36:44;;;;;;;3.50;2.57;;;;;;;20.67;79.34;98333.94;5072979;28;40112;-81
2023/08/27 08:39:12;;;;;;;3.43;2.53;;;;;;;20.61;79.46;98344.56;5074181;28;42666;-82
2023/08/27 08:41:44;;;;;;;5.03;2.43;;;;;;;20.55;79.85;98353.28;5074101;28;41259;-82
2023/08/27 08:44:21;;;;;;;2.70;2.50;;;;;;;20.52;80.31;98365.25;5088431;28;43330;-81
2023/08/27 08:46:52;;;;;;;2.33;2.17;;;;;;;20.54;79.79;98367.75;5074117;28;39910;-82
2023/08/27 08:49:23;;;;;;;3.13;2.03;;;;;;;20.50;79.96;98350.28;5057258;28;40464;-82
2023/08/27 08:51:55;;;;;;;2.40;2.20;;;;;;;20.49;79.46;98330.63;5074134;28;41814;-81
2023/08/27 08:54:26;;;;;;;3.10;2.63;;;;;;;20.63;79.26;98334.47;5075133;28;41060;-82
2023/08/27 08:57:00;;;;;;;3.83;3.33;;;;;;;20.72;78.87;98346.88;5058208;28;40003;-82
2023/08/27 08:59:29;;;;;;;2.50;2.23;;;;;;;20.72;79.22;98349.56;5072596;28;42510;-82
2023/08/27 09:01:59;;;;;;;4.40;2.77;;;;;;;20.82;78.93;98366.34;5074982;28;42603;-82
2023/08/27 09:04:27;;;;;;;3.43;2.20;;;;;;;20.83;78.60;98370.72;5092417;28;42348;-81
2023/08/27 09:06:55;;;;;;;3.13;2.33;;;;;;;20.68;78.14;98370.59;5075185;28;39035;-82
2023/08/27 09:09:24;;;;;;;4.60;2.37;;;;;;;20.67;76.87;98374.28;5092916;28;42519;-81
2023/08/27 09:11:52;;;;;;;2.40;2.20;;;;;;;20.55;77.44;98358.69;5074908;28;41587;-81
2023/08/27 09:14:22;;;;;;;4.07;2.70;;;;;;;20.58;77.42;98359.19;5074621;28;41384;-82
2023/08/27 09:16:50;;;;;;;2.97;2.50;;;;;;;20.69;77.33;98374.97;5092405;28;41233;-81
2023/08/27 09:19:20;;;;;;;2.70;2.20;;;;;;;20.73;77.52;98351.25;5056147;28;40945;-81
2023/08/27 09:21:48;;;;;;;2.60;2.20;;;;;;;20.77;77.28;98336.44;5057149;28;41856;-81
2023/08/27 09:24:16;;;;;;;2.40;2.20;;;;;;;21.00;77.11;98344.59;5056258;28;42012;-82
2023/08/27 09:26:44;;;;;;;3.20;2.03;;;;;;;21.02;76.27;98321.00;5073727;28;40107;-81
2023/08/27 09:29:13;;;;;;;2.73;2.20;;;;;;;21.05;75.97;98312.59;5073221;28;40605;-81
2023/08/27 09:31:42;;;;;;;2.53;2.33;;;;;;;21.34;75.40;98323.59;5056638;28;41523;-82
2023/08/27 09:34:11;;;;;;;1.70;1.60;;;;;;;21.49;74.98;98310.22;5073155;28;42163;-82
2023/08/27 09:36:40;;;;;;;2.37;2.17;;;;;;;21.62;74.55;98310.47;5073762;28;40046;-82
2023/08/27 09:39:10;;;;;;;1.67;1.57;;;;;;;21.84;74.31;98315.00;5056448;28;40831;-82
2023/08/27 09:41:39;;;;;;;4.60;1.63;;;;;;;22.03;74.15;98318.25;5073201;28;41975;-82
2023/08/27 09:44:07;;;;;;;1.60;1.50;;;;;;;22.14;72.84;98315.97;5056384;28;41518;-83
2023/08/27 09:46:36;;;;;;;1.60;1.50;;;;;;;22.19;72.28;98320.81;5057383;28;39104;-82
2023/08/27 09:49:06;;;;;;;1.60;1.50;;;;;;;22.26;72.33;98318.22;5060930;28;43321;-82
2023/08/27 09:51:34;;;;;;;1.97;1.50;;;;;;;22.35;72.35;98328.78;5096871;28;42842;-82
2023/08/27 09:54:13;;;;;;;1.57;1.47;;;;;;;22.42;71.92;98324.31;5077943;28;42272;-82
2023/08/27 09:56:45;;;;;;;1.83;1.50;;;;;;;22.49;72.36;98325.25;5078411;28;40132;-82
2023/08/27 09:59:15;;;;;;;1.57;1.30;;;;;;;22.57;71.95;98314.38;5077293;28;40508;-82
2023/08/27 10:01:47;;;;;;;3.63;1.40;;;;;;;22.64;70.54;98305.50;5096224;28;43638;-82
2023/08/27 10:04:14;;;;;;;3.00;1.47;;;;;;;22.89;69.62;98320.44;5077690;28;42285;-82
2023/08/27 10:06:43;;;;;;;2.50;1.27;;;;;;;22.96;69.33;98310.59;5061435;28;39031;-84
2023/08/27 10:09:13;;;;;;;2.37;1.20;;;;;;;23.09;68.68;98299.13;5077860;28;42705;-83
2023/08/27 10:11:44;;;;;;;1.33;1.23;;;;;;;23.18;67.46;98288.00;5060894;28;42790;-84
2023/08/27 10:14:11;;;;;;;2.27;1.07;;;;;;;23.50;67.77;98308.34;5093277;28;42066;-83
2023/08/27 10:16:40;;;;;;;1.93;1.03;;;;;;;23.58;66.40;98299.31;5078274;28;39782;-82
2023/08/27 10:19:08;;;;;;;1.13;0.90;;;;;;;23.71;66.40;98279.69;5060983;28;40617;-83
2023/08/27 10:21:36;;;;;;;1.87;1.00;;;;;;;24.11;63.94;98310.63;5077314;28;41779;-82
2023/08/27 10:24:06;;;;;;;1.07;1.00;;;;;;;24.27;62.85;98304.94;5075820;28;42413;-85
2023/08/27 10:26:36;;;;;;;1.87;1.30;;;;;;;24.61;62.02;98302.28;5059807;28;40150;-85
2023/08/27 10:29:04;;;;;;;1.10;1.00;;;;;;;25.02;61.13;98310.47;5076985;28;41260;-85
2023/08/27 10:31:32;;;;;;;1.30;1.10;;;;;;;25.38;59.27;98325.63;5076461;28;42043;-84
2023/08/27 10:34:00;;;;;;;1.23;1.13;;;;;;;25.60;58.68;98326.31;5076829;28;43253;-85
2023/08/27 10:36:32;;;;;;;2.20;0.93;;;;;;;25.95;59.42;98327.91;5076403;28;40002;-83
2023/08/27 10:39:03;;;;;;;1.10;0.83;;;;;;;26.27;59.28;98315.38;5059005;28;40829;-86
2023/08/27 10:41:35;;;;;;;1.27;1.13;;;;;;;26.48;58.18;98308.94;5091177;28;42883;-85
2023/08/27 10:44:04;;;;;;;1.33;1.23;;;;;;;26.90;56.61;98317.63;5090225;28;42629;-84
2023/08/27 10:46:32;;;;;;;1.77;1.30;;;;;;;27.18;55.42;98313.63;5076355;28;41096;-84
2023/08/27 10:48:59;;;;;;;1.20;1.10;;;;;;;27.41;54.53;98328.56;5059423;28;41979;-83
2023/08/27 10:51:32;;;;;;;0.90;0.90;;;;;;;27.42;51.80;98339.25;5059154;28;42368;-83
2023/08/27 10:54:04;;;;;;;2.87;1.23;;;;;;;27.47;51.59;98344.84;5094484;28;43364;-83
2023/08/27 10:56:39;;;;;;;1.57;0.90;;;;;;;27.45;52.97;98333.34;5074049;28;40155;-84
2023/08/27 10:59:10;;;;;;;1.20;1.10;;;;;;;27.42;51.55;98338.41;5076927;28;40741;-84
2023/08/27 11:01:39;;;;;;;2.20;1.30;;;;;;;27.49;52.38;98336.47;5059749;28;41881;-87
2023/08/27 11:04:07;;;;;;;1.07;1.00;;;;;;;27.52;51.36;98333.34;5075760;28;43409;-84
2023/08/27 11:06:43;;;;;;;1.17;1.07;;;;;;;27.56;51.71;98314.72;5077202;28;41101;-85
2023/08/27 11:09:20;;;;;;;1.33;1.00;;;;;;;27.97;51.68;98317.81;5092202;28;41692;-83
2023/08/27 11:11:54;;;;;;;2.47;1.23;;;;;;;28.49;50.81;98302.13;5091477;28;42630;-86
2023/08/27 11:14:23;;;;;;;1.73;1.07;;;;;;;29.12;49.33;98323.72;5076846;28;42992;-85
2023/08/27 11:16:55;;;;;;;1.17;0.97;;;;;;;29.29;47.76;98311.16;5077024;28;39854;-84
2023/08/27 11:19:28;;;;;;;1.20;1.10;;;;;;;29.41;46.98;98303.91;5059930;28;41879;-84
2023/08/27 11:22:05;;;;;;;1.30;1.20;;;;;;;29.81;47.11;98303.31;5059653;28;43163;-84
2023/08/27 11:24:33;;;;;;;1.93;1.20;;;;;;;30.01;46.10;98314.81;5074771;28;42592;-85
2023/08/27 11:27:03;;;;;;;1.00;1.00;;;;;;;30.57;46.94;98303.41;5075606;28;39287;-86
2023/08/27 11:29:31;;;;;;;1.10;1.03;;;;;;;30.81;44.56;98315.16;5075424;28;40756;-85
2023/08/27 11:32:03;;;;;;;1.90;1.10;;;;;;;31.23;43.87;98323.22;5058579;28;41964;-84
2023/08/27 11:34:36;;;;;;;1.10;0.90;;;;;;;31.43;42.70;98307.22;5075362;28;42372;-84
2023/08/27 11:37:04;;;;;;;1.63;1.10;;;;;;;32.02;43.49;98316.06;5075810;28;39257;-84
2023/08/27 11:39:33;;;;;;;1.00;1.00;;;;;;;33.33;40.09;98352.16;5074761;28;42140;-84
2023/08/27 11:42:03;;;;;;;1.67;1.20;;;;;;;33.86;39.92;98343.22;5074922;28;41620;-85